createdAt,value
2017-08-30T00:00:48.745Z,20.9
2017-08-30T00:01:50.128Z,20.9
2017-08-30T00:02:50.839Z,20.8
2017-08-30T00:03:51.607Z,20.8
2017-08-30T00:04:52.791Z,20.8
2017-08-30T00:05:53.765Z,20.8
2017-08-30T00:06:54.423Z,20.8
2017-08-30T00:07:55.205Z,20.7
2017-08-30T00:08:55.947Z,20.8
2017-08-30T00:09:56.742Z,20.7
2017-08-30T00:10:57.483Z,20.8
2017-08-30T00:11:58.217Z,20.7
2017-08-30T00:12:58.970Z,20.8
2017-08-30T00:14:00.364Z,20.7
2017-08-30T00:15:01.816Z,20.8
2017-08-30T00:16:03.754Z,20.8
2017-08-30T00:17:04.379Z,20.8
2017-08-30T00:18:05.244Z,20.7
2017-08-30T00:19:06.066Z,20.8
2017-08-30T00:20:06.803Z,20.7
2017-08-30T00:21:07.638Z,20.8
2017-08-30T00:22:08.362Z,20.9
2017-08-30T00:23:09.272Z,20.8
2017-08-30T00:24:10.688Z,20.7
2017-08-30T00:25:11.532Z,20.8
2017-08-30T00:26:12.234Z,20.7
2017-08-30T00:27:12.958Z,20.8
2017-08-30T00:28:13.729Z,20.8
2017-08-30T00:29:14.498Z,20.7
2017-08-30T00:30:15.427Z,20.7
2017-08-30T00:32:31.824Z,20.7
2017-08-30T00:33:33.303Z,20.7
2017-08-30T00:34:34.379Z,20.5
2017-08-30T00:35:35.144Z,20.6
2017-08-30T00:36:36.557Z,20.6
2017-08-30T00:37:37.300Z,20.7
2017-08-30T00:38:38.049Z,20.7
2017-08-30T00:39:38.801Z,20.6
2017-08-30T00:40:39.660Z,20.7
2017-08-30T00:41:40.346Z,20.7
2017-08-30T00:42:41.120Z,20.6
2017-08-30T00:43:41.852Z,20.7
2017-08-30T00:44:42.698Z,20.7
2017-08-30T00:45:43.483Z,20.7
2017-08-30T00:46:44.197Z,20.6
2017-08-30T00:47:45.565Z,20.7
2017-08-30T00:48:46.285Z,20.6
2017-08-30T00:49:47.086Z,20.6
2017-08-30T00:50:47.797Z,20.7
2017-08-30T00:51:48.536Z,20.7
2017-08-30T00:52:49.331Z,20.7
2017-08-30T00:53:50.055Z,20.7
2017-08-30T00:54:50.835Z,20.6
2017-08-30T00:55:51.562Z,20.6
2017-08-30T00:56:52.394Z,20.6
2017-08-30T00:57:53.143Z,20.6
2017-08-30T00:58:53.930Z,20.6
2017-08-30T00:59:54.635Z,20.6
2017-08-30T01:00:55.463Z,20.5
2017-08-30T01:01:56.190Z,20.5
2017-08-30T01:02:56.977Z,20.6
2017-08-30T01:03:57.977Z,20.5
2017-08-30T01:04:58.766Z,20.5
2017-08-30T01:05:59.545Z,20.5
2017-08-30T01:07:00.291Z,20.5
2017-08-30T01:08:01.072Z,20.5
2017-08-30T01:09:01.841Z,20.4
2017-08-30T01:10:02.687Z,20.4
2017-08-30T01:11:03.433Z,20.4
2017-08-30T01:12:04.150Z,20.5
2017-08-30T01:13:05.246Z,20.3
2017-08-30T01:14:05.936Z,20.4
2017-08-30T01:15:07.254Z,20.4
2017-08-30T01:16:07.978Z,20.5
2017-08-30T01:17:08.815Z,20.4
2017-08-30T01:18:10.421Z,20.4
2017-08-30T01:19:11.122Z,20.4
2017-08-30T01:20:11.877Z,20.4
2017-08-30T01:21:12.648Z,20.3
2017-08-30T01:22:13.374Z,20.3
2017-08-30T01:23:14.155Z,20.4
2017-08-30T01:24:14.872Z,20.3
2017-08-30T01:25:15.657Z,20.3
2017-08-30T01:26:16.432Z,20.2
2017-08-30T01:27:17.555Z,20.4
2017-08-30T01:28:19.052Z,20.3
2017-08-30T01:29:19.729Z,20.4
2017-08-30T01:30:20.465Z,20.2
2017-08-30T01:31:21.304Z,20.2
2017-08-30T01:32:22.071Z,20.2
2017-08-30T01:33:22.785Z,20.2
2017-08-30T01:34:23.548Z,20.3
2017-08-30T01:35:24.442Z,20.3
2017-08-30T01:36:25.431Z,20.2
2017-08-30T01:37:26.659Z,20.2
2017-08-30T01:38:28.501Z,20.2
2017-08-30T01:39:29.284Z,20.1
2017-08-30T01:40:30.238Z,20.0
2017-08-30T01:41:31.043Z,20.0
2017-08-30T01:42:31.762Z,19.8
2017-08-30T01:43:32.440Z,19.9
2017-08-30T01:44:33.217Z,19.9
2017-08-30T01:45:36.732Z,19.9
2017-08-30T01:46:37.531Z,20.0
2017-08-30T01:47:38.363Z,20.0
2017-08-30T01:48:39.192Z,20.1
2017-08-30T01:49:40.624Z,20.0
2017-08-30T01:50:41.403Z,20.0
2017-08-30T01:51:42.210Z,20.1
2017-08-30T01:52:43.076Z,20.1
2017-08-30T01:53:44.681Z,20.1
2017-08-30T01:54:46.093Z,20.1
2017-08-30T01:55:46.811Z,20.1
2017-08-30T01:56:47.499Z,20.1
2017-08-30T01:57:48.236Z,20.2
2017-08-30T01:58:48.984Z,20.2
2017-08-30T01:59:49.764Z,20.3
2017-08-30T02:00:50.469Z,20.1
2017-08-30T02:01:51.226Z,20.2
2017-08-30T02:02:51.989Z,20.2
2017-08-30T02:03:52.761Z,20.2
2017-08-30T02:04:53.516Z,20.2
2017-08-30T02:05:54.288Z,20.2
2017-08-30T02:06:55.104Z,20.2
2017-08-30T02:07:55.808Z,20.2
2017-08-30T02:08:56.832Z,20.2
2017-08-30T02:09:57.943Z,20.1
2017-08-30T02:10:58.678Z,20.1
2017-08-30T02:11:59.453Z,20.1
2017-08-30T02:13:00.227Z,20.0
2017-08-30T02:14:01.041Z,20.1
2017-08-30T02:15:01.770Z,20.1
2017-08-30T02:16:02.545Z,20.1
2017-08-30T02:17:03.335Z,20.1
2017-08-30T02:18:04.031Z,20.1
2017-08-30T02:19:04.815Z,20.1
2017-08-30T02:20:05.579Z,20.0
2017-08-30T02:21:06.325Z,20.0
2017-08-30T02:22:07.076Z,20.1
2017-08-30T02:23:08.274Z,20.1
2017-08-30T02:24:09.828Z,20.1
2017-08-30T02:25:10.799Z,20.1
2017-08-30T02:26:12.010Z,20.1
2017-08-30T02:27:14.267Z,20.1
2017-08-30T02:28:15.002Z,20.1
2017-08-30T02:29:16.236Z,20.1
2017-08-30T02:30:17.882Z,20.1
2017-08-30T02:31:18.683Z,20.1
2017-08-30T02:32:20.122Z,20.1
2017-08-30T02:33:21.733Z,20.1
2017-08-30T02:34:22.397Z,20.0
2017-08-30T02:35:23.215Z,20.0
2017-08-30T02:36:24.008Z,19.9
2017-08-30T02:37:24.777Z,19.9
2017-08-30T02:38:25.492Z,19.9
2017-08-30T02:39:26.184Z,19.9
2017-08-30T02:40:26.933Z,20.0
2017-08-30T02:41:28.180Z,20.0
2017-08-30T02:42:29.826Z,20.0
2017-08-30T02:44:32.197Z,20.0
2017-08-30T02:45:33.016Z,19.9
2017-08-30T02:46:33.754Z,19.9
2017-08-30T02:47:34.579Z,19.9
2017-08-30T02:48:35.289Z,19.9
2017-08-30T02:49:36.054Z,19.9
2017-08-30T02:50:36.758Z,19.8
2017-08-30T02:51:37.694Z,19.9
2017-08-30T02:52:39.004Z,19.9
2017-08-30T02:53:39.759Z,19.9
2017-08-30T02:54:40.542Z,19.9
2017-08-30T02:55:41.264Z,19.9
2017-08-30T02:56:42.011Z,19.9
2017-08-30T02:57:42.956Z,19.9
2017-08-30T02:58:43.690Z,19.9
2017-08-30T02:59:44.467Z,19.9
2017-08-30T03:00:45.231Z,19.8
2017-08-30T03:01:46.044Z,19.8
2017-08-30T03:02:46.732Z,19.9
2017-08-30T03:03:47.444Z,19.9
2017-08-30T03:04:48.373Z,19.8
2017-08-30T03:05:49.048Z,19.9
2017-08-30T03:06:49.778Z,19.9
2017-08-30T03:07:50.585Z,19.8
2017-08-30T03:08:51.621Z,19.8
2017-08-30T03:09:52.333Z,19.7
2017-08-30T03:10:53.079Z,19.8
2017-08-30T03:11:53.908Z,19.8
2017-08-30T03:12:54.661Z,19.8
2017-08-30T03:13:55.403Z,19.8
2017-08-30T03:14:56.121Z,19.7
2017-08-30T03:15:57.075Z,19.6
2017-08-30T03:16:57.811Z,19.7
2017-08-30T03:17:58.497Z,19.5
2017-08-30T03:18:59.329Z,19.6
2017-08-30T03:20:00.035Z,19.7
2017-08-30T03:21:00.865Z,19.7
2017-08-30T03:22:01.704Z,19.7
2017-08-30T03:23:02.426Z,19.6
2017-08-30T03:24:03.131Z,19.6
2017-08-30T03:25:03.891Z,19.5
2017-08-30T03:26:04.651Z,19.5
2017-08-30T03:27:05.441Z,19.6
2017-08-30T03:28:06.163Z,19.6
2017-08-30T03:29:06.897Z,19.5
2017-08-30T03:30:07.800Z,19.6
2017-08-30T03:31:08.539Z,19.6
2017-08-30T03:32:09.264Z,19.7
2017-08-30T03:33:10.049Z,19.6
2017-08-30T03:34:10.920Z,19.7
2017-08-30T03:35:11.568Z,19.7
2017-08-30T03:36:12.296Z,19.6
2017-08-30T03:37:13.074Z,19.6
2017-08-30T03:38:13.842Z,19.6
2017-08-30T03:39:14.721Z,19.6
2017-08-30T03:40:15.462Z,19.6
2017-08-30T03:41:16.194Z,19.6
2017-08-30T03:42:16.990Z,19.7
2017-08-30T03:43:17.721Z,19.6
2017-08-30T03:44:18.450Z,19.7
2017-08-30T03:45:19.191Z,19.7
2017-08-30T03:46:19.991Z,19.6
2017-08-30T03:47:20.839Z,19.7
2017-08-30T03:48:21.545Z,19.7
2017-08-30T03:49:22.209Z,19.6
2017-08-30T03:50:22.982Z,19.7
2017-08-30T03:51:24.014Z,19.7
2017-08-30T03:52:24.864Z,19.7
2017-08-30T03:53:25.689Z,19.7
2017-08-30T03:54:26.430Z,19.7
2017-08-30T03:55:27.217Z,19.6
2017-08-30T03:56:27.977Z,19.7
2017-08-30T03:57:28.712Z,19.6
2017-08-30T03:58:29.507Z,19.6
2017-08-30T03:59:30.909Z,19.5
2017-08-30T04:00:31.795Z,19.6
2017-08-30T04:01:32.527Z,19.5
2017-08-30T04:02:33.325Z,19.5
2017-08-30T04:03:34.049Z,19.5
2017-08-30T04:04:34.799Z,19.6
2017-08-30T04:05:35.530Z,19.6
2017-08-30T04:06:36.274Z,19.5
2017-08-30T04:07:37.070Z,19.5
2017-08-30T04:09:53.350Z,19.6
2017-08-30T04:10:54.083Z,19.6
2017-08-30T04:11:54.992Z,19.6
2017-08-30T04:12:55.752Z,19.6
2017-08-30T04:13:56.609Z,19.6
2017-08-30T04:14:57.362Z,19.7
2017-08-30T04:15:58.110Z,19.7
2017-08-30T04:16:58.919Z,19.7
2017-08-30T04:18:00.054Z,19.7
2017-08-30T04:19:00.711Z,19.7
2017-08-30T04:20:01.612Z,19.7
2017-08-30T04:21:02.416Z,19.7
2017-08-30T04:22:03.116Z,19.7
2017-08-30T04:23:03.928Z,19.8
2017-08-30T04:24:04.708Z,19.7
2017-08-30T04:25:05.418Z,19.8
2017-08-30T04:26:06.246Z,19.7
2017-08-30T04:27:07.102Z,19.6
2017-08-30T04:28:07.805Z,19.6
2017-08-30T04:29:08.727Z,19.6
2017-08-30T04:30:10.258Z,19.6
2017-08-30T04:31:11.324Z,19.6
2017-08-30T04:32:12.102Z,19.6
2017-08-30T04:33:12.859Z,19.5
2017-08-30T04:34:13.632Z,19.5
2017-08-30T04:35:14.376Z,19.5
2017-08-30T04:36:15.111Z,19.4
2017-08-30T04:37:15.989Z,19.4
2017-08-30T04:38:16.705Z,19.4
2017-08-30T04:39:17.461Z,19.4
2017-08-30T04:40:18.238Z,19.6
2017-08-30T04:41:18.931Z,19.7
2017-08-30T04:42:19.691Z,19.8
2017-08-30T04:43:20.424Z,19.9
2017-08-30T04:44:21.201Z,20.1
2017-08-30T04:45:21.997Z,20.3
2017-08-30T04:46:22.845Z,20.4
2017-08-30T04:47:23.649Z,20.6
2017-08-30T04:48:24.339Z,20.7
2017-08-30T04:49:25.073Z,20.9
2017-08-30T04:50:25.858Z,21.1
2017-08-30T04:51:26.619Z,21.2
2017-08-30T04:52:27.396Z,21.4
2017-08-30T04:53:28.168Z,21.5
2017-08-30T04:54:28.932Z,21.7
2017-08-30T04:55:29.707Z,21.8
2017-08-30T04:56:30.528Z,22.0
2017-08-30T04:57:31.265Z,22.1
2017-08-30T04:58:32.057Z,22.3
2017-08-30T04:59:32.801Z,22.3
2017-08-30T05:00:34.317Z,22.7
2017-08-30T05:01:35.166Z,22.8
2017-08-30T05:02:35.906Z,22.9
2017-08-30T05:03:36.985Z,23.1
2017-08-30T05:04:37.924Z,23.2
2017-08-30T05:05:38.701Z,23.3
2017-08-30T05:06:39.444Z,23.4
2017-08-30T05:07:40.234Z,23.5
2017-08-30T05:08:40.929Z,23.7
2017-08-30T05:09:41.678Z,24.0
2017-08-30T05:10:42.511Z,24.1
2017-08-30T05:11:43.281Z,24.2
2017-08-30T05:12:44.049Z,24.3
2017-08-30T05:13:44.910Z,24.6
2017-08-30T05:14:45.566Z,24.6
2017-08-30T05:15:46.649Z,24.7
2017-08-30T05:16:47.787Z,24.9
2017-08-30T05:17:48.545Z,24.9
2017-08-30T05:18:49.204Z,24.9
2017-08-30T05:19:49.977Z,24.9
2017-08-30T05:20:50.695Z,25.1
2017-08-30T05:21:51.492Z,25.0
2017-08-30T05:22:52.224Z,25.0
2017-08-30T05:23:52.975Z,25.1
2017-08-30T05:24:53.760Z,25.1
2017-08-30T05:25:54.648Z,25.2
2017-08-30T05:26:55.335Z,25.3
2017-08-30T05:27:56.104Z,25.5
2017-08-30T05:28:56.805Z,25.6
2017-08-30T05:29:57.561Z,25.8
2017-08-30T05:30:58.301Z,26.1
2017-08-30T05:31:59.060Z,26.3
2017-08-30T05:32:59.785Z,26.6
2017-08-30T05:34:00.560Z,26.9
2017-08-30T05:35:01.282Z,27.1
2017-08-30T05:36:02.000Z,27.3
2017-08-30T05:37:02.795Z,27.5
2017-08-30T05:38:03.544Z,27.7
2017-08-30T05:39:04.249Z,27.8
2017-08-30T05:40:05.082Z,27.9
2017-08-30T05:41:05.794Z,28.1
2017-08-30T05:42:06.543Z,28.2
2017-08-30T05:43:07.261Z,28.5
2017-08-30T05:44:08.004Z,28.6
2017-08-30T05:45:08.833Z,28.9
2017-08-30T05:46:09.647Z,29.1
2017-08-30T05:47:10.451Z,29.2
2017-08-30T05:48:11.157Z,29.4
2017-08-30T05:49:12.033Z,29.6
2017-08-30T05:50:12.727Z,29.5
2017-08-30T05:51:13.556Z,29.2
2017-08-30T05:52:14.273Z,29.3
2017-08-30T05:53:14.977Z,29.3
2017-08-30T05:54:15.735Z,29.4
2017-08-30T05:55:16.517Z,29.5
2017-08-30T05:56:17.272Z,29.6
2017-08-30T05:57:18.025Z,29.6
2017-08-30T05:58:18.826Z,29.7
2017-08-30T05:59:19.524Z,29.7
2017-08-30T06:00:20.378Z,29.8
2017-08-30T06:01:21.082Z,29.7
2017-08-30T06:02:21.801Z,29.8
2017-08-30T06:03:22.533Z,30.0
2017-08-30T06:04:23.313Z,30.4
2017-08-30T06:05:24.045Z,30.2
2017-08-30T06:06:24.818Z,30.4
2017-08-30T06:07:25.547Z,30.4
2017-08-30T06:08:26.383Z,30.4
2017-08-30T06:09:27.079Z,30.0
2017-08-30T06:10:27.817Z,29.9
2017-08-30T06:11:28.546Z,29.8
2017-08-30T06:13:44.845Z,29.1
2017-08-30T06:14:45.568Z,29.0
2017-08-30T06:15:46.334Z,29.1
2017-08-30T06:16:47.102Z,29.0
2017-08-30T06:17:47.897Z,29.2
2017-08-30T06:18:48.666Z,29.0
2017-08-30T06:19:49.361Z,28.9
2017-08-30T06:20:50.108Z,28.9
2017-08-30T06:21:50.879Z,29.0
2017-08-30T06:22:51.647Z,29.0
2017-08-30T06:23:52.381Z,29.2
2017-08-30T06:24:53.136Z,29.4
2017-08-30T06:25:53.928Z,29.5
2017-08-30T06:26:54.667Z,29.6
2017-08-30T06:27:55.416Z,29.7
2017-08-30T06:28:56.168Z,29.7
2017-08-30T06:29:56.912Z,29.6
2017-08-30T06:30:57.655Z,29.4
2017-08-30T06:31:58.418Z,29.2
2017-08-30T06:32:59.148Z,29.1
2017-08-30T06:33:59.901Z,29.0
2017-08-30T06:35:00.776Z,29.0
2017-08-30T06:36:01.504Z,28.9
2017-08-30T06:37:02.276Z,28.8
2017-08-30T06:38:02.992Z,28.6
2017-08-30T06:39:03.738Z,28.5
2017-08-30T06:40:04.461Z,28.3
2017-08-30T06:41:05.170Z,28.2
2017-08-30T06:42:05.897Z,28.3
2017-08-30T06:43:06.707Z,28.2
2017-08-30T06:44:07.471Z,28.1
2017-08-30T06:45:08.286Z,27.8
2017-08-30T06:46:09.099Z,27.9
2017-08-30T06:47:09.834Z,27.9
2017-08-30T06:48:10.541Z,27.8
2017-08-30T06:49:11.278Z,27.8
2017-08-30T06:50:12.217Z,27.8
2017-08-30T06:51:13.033Z,27.6
2017-08-30T06:52:13.748Z,27.6
2017-08-30T06:53:14.513Z,27.5
2017-08-30T06:54:15.190Z,27.4
2017-08-30T06:55:16.056Z,27.4
2017-08-30T06:56:16.816Z,27.2
2017-08-30T06:57:17.502Z,27.3
2017-08-30T06:58:18.260Z,27.1
2017-08-30T06:59:19.045Z,26.8
2017-08-30T07:00:20.652Z,26.8
2017-08-30T07:01:22.644Z,26.8
2017-08-30T07:02:23.863Z,26.8
2017-08-30T07:03:24.615Z,26.8
2017-08-30T07:04:25.300Z,26.8
2017-08-30T07:05:26.035Z,26.9
2017-08-30T07:06:26.788Z,26.9
2017-08-30T07:07:27.916Z,27.0
2017-08-30T07:08:28.618Z,26.9
2017-08-30T07:09:29.356Z,26.6
2017-08-30T07:10:30.079Z,26.6
2017-08-30T07:11:30.802Z,26.6
2017-08-30T07:12:31.661Z,26.7
2017-08-30T07:13:32.316Z,26.8
2017-08-30T07:14:33.052Z,26.8
2017-08-30T07:15:33.790Z,26.9
2017-08-30T07:16:34.541Z,26.8
2017-08-30T07:17:35.254Z,26.8
2017-08-30T07:18:36.069Z,26.8
2017-08-30T07:19:36.851Z,26.8
2017-08-30T07:20:37.642Z,26.7
2017-08-30T07:21:38.365Z,26.7
2017-08-30T07:22:39.118Z,26.7
2017-08-30T07:23:39.945Z,26.6
2017-08-30T07:24:40.676Z,26.6
2017-08-30T07:25:41.481Z,26.4
2017-08-30T07:26:42.233Z,26.6
2017-08-30T07:27:42.984Z,26.6
2017-08-30T07:28:43.698Z,26.3
2017-08-30T07:29:44.390Z,26.3
2017-08-30T07:30:45.131Z,26.4
2017-08-30T07:31:45.989Z,26.3
2017-08-30T07:32:46.707Z,26.2
2017-08-30T07:33:47.468Z,26.1
2017-08-30T07:34:48.420Z,26.3
2017-08-30T07:35:49.203Z,26.1
2017-08-30T07:36:49.964Z,26.3
2017-08-30T07:37:50.733Z,26.4
2017-08-30T07:38:51.423Z,26.5
2017-08-30T07:39:52.234Z,26.5
2017-08-30T07:40:52.904Z,26.5
2017-08-30T07:41:53.684Z,26.8
2017-08-30T07:42:54.448Z,26.9
2017-08-30T07:43:55.178Z,27.2
2017-08-30T07:44:55.904Z,27.2
2017-08-30T07:45:56.946Z,27.2
2017-08-30T07:46:57.682Z,27.5
2017-08-30T07:47:58.473Z,27.9
2017-08-30T07:48:59.301Z,28.1
2017-08-30T07:50:00.045Z,28.5
2017-08-30T07:51:00.873Z,29.0
2017-08-30T07:52:01.636Z,29.2
2017-08-30T07:53:02.410Z,29.7
2017-08-30T07:54:03.124Z,29.9
2017-08-30T07:55:03.884Z,30.2
2017-08-30T07:56:04.710Z,30.5
2017-08-30T07:57:05.466Z,30.7
2017-08-30T07:58:06.181Z,30.7
2017-08-30T07:59:07.518Z,30.8
2017-08-30T08:00:08.348Z,31.0
2017-08-30T08:01:09.145Z,30.9
2017-08-30T08:02:09.910Z,31.0
2017-08-30T08:03:10.587Z,31.2
2017-08-30T08:04:11.327Z,31.1
2017-08-30T08:05:12.101Z,31.3
2017-08-30T08:06:12.871Z,31.4
2017-08-30T08:07:13.704Z,31.9
2017-08-30T08:08:14.360Z,32.3
2017-08-30T08:09:15.207Z,32.3
2017-08-30T08:10:15.917Z,32.8
2017-08-30T08:11:16.728Z,33.1
2017-08-30T08:12:17.415Z,33.4
2017-08-30T08:13:18.158Z,33.7
2017-08-30T08:14:18.914Z,33.7
2017-08-30T08:15:19.750Z,34.0
2017-08-30T08:16:20.506Z,34.4
2017-08-30T08:17:21.228Z,34.5
2017-08-30T08:18:22.011Z,34.7
2017-08-30T08:19:22.751Z,34.9
2017-08-30T08:20:23.506Z,35.1
2017-08-30T08:21:24.236Z,34.9
2017-08-30T08:22:24.991Z,34.1
2017-08-30T08:23:25.680Z,33.9
2017-08-30T08:24:26.820Z,33.6
2017-08-30T08:25:27.592Z,33.4
2017-08-30T08:26:28.368Z,33.2
2017-08-30T08:27:29.149Z,32.8
2017-08-30T08:28:30.265Z,32.9
2017-08-30T08:29:31.042Z,33.0
2017-08-30T08:30:31.808Z,33.3
2017-08-30T08:31:32.545Z,33.1
2017-08-30T08:32:33.273Z,32.9
2017-08-30T08:33:33.989Z,32.8
2017-08-30T08:34:34.750Z,33.0
2017-08-30T08:35:35.634Z,33.5
2017-08-30T08:36:36.418Z,34.0
2017-08-30T08:37:37.126Z,33.9
2017-08-30T08:38:38.000Z,34.1
2017-08-30T08:39:38.819Z,34.1
2017-08-30T08:40:39.546Z,34.0
2017-08-30T08:41:40.357Z,33.9
2017-08-30T08:42:41.063Z,33.9
2017-08-30T08:43:41.863Z,34.0
2017-08-30T08:44:42.603Z,34.4
2017-08-30T08:45:43.295Z,34.4
2017-08-30T08:46:44.019Z,34.4
2017-08-30T08:47:44.831Z,33.6
2017-08-30T08:48:45.560Z,33.3
2017-08-30T08:49:46.336Z,33.2
2017-08-30T08:50:47.062Z,33.3
2017-08-30T08:51:47.874Z,33.2
2017-08-30T08:52:48.573Z,33.4
2017-08-30T08:53:49.319Z,33.4
2017-08-30T08:54:50.054Z,33.3
2017-08-30T08:55:51.079Z,33.3
2017-08-30T08:56:51.856Z,32.9
2017-08-30T08:57:52.573Z,32.4
2017-08-30T08:58:53.625Z,32.2
2017-08-30T08:59:54.352Z,32.1
2017-08-30T09:00:55.105Z,32.0
2017-08-30T09:01:55.880Z,32.1
2017-08-30T09:02:56.641Z,31.9
2017-08-30T09:03:57.370Z,31.9
2017-08-30T09:04:58.420Z,31.9
2017-08-30T09:05:59.100Z,31.8
2017-08-30T09:06:59.931Z,31.9
2017-08-30T09:08:00.633Z,31.7
2017-08-30T09:09:01.350Z,31.6
2017-08-30T09:10:02.161Z,31.7
2017-08-30T09:11:02.893Z,31.8
2017-08-30T09:12:03.726Z,31.8
2017-08-30T09:13:04.445Z,31.3
2017-08-30T09:14:05.169Z,31.2
2017-08-30T09:15:05.930Z,31.4
2017-08-30T09:16:06.674Z,31.3
2017-08-30T09:17:07.395Z,31.4
2017-08-30T09:18:08.177Z,31.5
2017-08-30T09:19:08.933Z,31.3
2017-08-30T09:21:26.108Z,31.4
2017-08-30T09:22:26.867Z,31.4
2017-08-30T09:23:27.588Z,31.6
2017-08-30T09:24:28.281Z,31.7
2017-08-30T09:25:29.203Z,31.8
2017-08-30T09:26:29.849Z,31.6
2017-08-30T09:27:30.645Z,31.4
2017-08-30T09:28:31.362Z,31.4
2017-08-30T09:29:32.112Z,31.2
2017-08-30T09:30:32.900Z,31.0
2017-08-30T09:31:33.642Z,31.2
2017-08-30T09:32:34.393Z,31.2
2017-08-30T09:33:35.256Z,31.3
2017-08-30T09:34:36.017Z,31.4
2017-08-30T09:35:36.820Z,31.3
2017-08-30T09:36:37.525Z,31.0
2017-08-30T09:37:38.307Z,30.9
2017-08-30T09:38:39.109Z,30.7
2017-08-30T09:39:39.863Z,30.9
2017-08-30T09:40:40.568Z,30.8
2017-08-30T09:41:41.428Z,30.7
2017-08-30T09:42:42.227Z,30.7
2017-08-30T09:43:43.150Z,30.7
2017-08-30T09:44:44.163Z,30.8
2017-08-30T09:45:45.662Z,30.8
2017-08-30T09:46:46.327Z,30.8
2017-08-30T09:47:47.078Z,30.7
2017-08-30T09:48:47.796Z,30.8
2017-08-30T09:49:48.573Z,30.7
2017-08-30T09:50:49.282Z,30.7
2017-08-30T09:51:50.059Z,30.6
2017-08-30T09:52:50.818Z,30.7
2017-08-30T09:53:51.518Z,30.8
2017-08-30T09:54:52.290Z,30.9
2017-08-30T09:55:53.069Z,30.8
2017-08-30T09:56:53.804Z,31.0
2017-08-30T09:57:54.857Z,31.1
2017-08-30T09:58:55.629Z,31.1
2017-08-30T09:59:56.333Z,31.1
2017-08-30T10:00:57.069Z,30.9
2017-08-30T10:01:57.790Z,31.0
2017-08-30T10:02:58.548Z,31.0
2017-08-30T10:03:59.272Z,31.0
2017-08-30T10:04:59.998Z,31.0
2017-08-30T10:06:00.800Z,31.0
2017-08-30T10:07:01.498Z,31.0
2017-08-30T10:08:02.301Z,31.0
2017-08-30T10:09:03.104Z,31.1
2017-08-30T10:10:04.032Z,31.2
2017-08-30T10:11:04.925Z,31.2
2017-08-30T10:12:05.616Z,31.2
2017-08-30T10:13:06.678Z,31.0
2017-08-30T10:14:07.363Z,30.8
2017-08-30T10:15:08.160Z,30.6
2017-08-30T10:16:08.951Z,30.5
2017-08-30T10:17:09.630Z,30.6
2017-08-30T10:18:10.464Z,30.5
2017-08-30T10:19:11.196Z,30.4
2017-08-30T10:20:11.910Z,30.4
2017-08-30T10:21:12.844Z,30.4
2017-08-30T10:22:13.536Z,30.3
2017-08-30T10:23:14.255Z,30.5
2017-08-30T10:24:15.004Z,30.4
2017-08-30T10:25:15.811Z,30.4
2017-08-30T10:26:16.527Z,30.5
2017-08-30T10:27:17.248Z,30.5
2017-08-30T10:28:18.086Z,30.4
2017-08-30T10:29:18.799Z,30.6
2017-08-30T10:30:19.535Z,30.5
2017-08-30T10:31:20.357Z,30.6
2017-08-30T10:32:21.092Z,30.6
2017-08-30T10:33:21.923Z,30.7
2017-08-30T10:34:22.650Z,30.5
2017-08-30T10:35:23.382Z,30.4
2017-08-30T10:36:24.185Z,30.3
2017-08-30T10:37:24.907Z,30.3
2017-08-30T10:38:25.939Z,30.4
2017-08-30T10:39:26.794Z,30.5
2017-08-30T10:40:27.470Z,30.5
2017-08-30T10:41:28.231Z,30.6
2017-08-30T10:42:29.017Z,30.4
2017-08-30T10:43:29.782Z,30.5
2017-08-30T10:44:30.478Z,30.5
2017-08-30T10:45:31.252Z,30.6
2017-08-30T10:46:32.148Z,30.7
2017-08-30T10:47:32.862Z,30.6
2017-08-30T10:48:33.620Z,30.6
2017-08-30T10:49:34.419Z,30.6
2017-08-30T10:50:35.446Z,30.6
2017-08-30T10:51:36.307Z,30.6
2017-08-30T10:52:37.118Z,30.7
2017-08-30T10:53:38.103Z,30.8
2017-08-30T10:54:38.853Z,30.7
2017-08-30T10:55:39.752Z,30.7
2017-08-30T10:56:40.487Z,30.8
2017-08-30T10:57:41.694Z,30.8
2017-08-30T10:58:42.474Z,30.8
2017-08-30T10:59:43.186Z,31.0
2017-08-30T11:00:44.116Z,31.0
2017-08-30T11:01:44.887Z,30.8
2017-08-30T11:02:45.580Z,30.8
2017-08-30T11:03:46.338Z,30.8
2017-08-30T11:04:47.069Z,30.8
2017-08-30T11:05:47.868Z,30.7
2017-08-30T11:06:48.635Z,30.7
2017-08-30T11:07:49.352Z,30.6
2017-08-30T11:08:50.072Z,30.5
2017-08-30T11:09:50.842Z,30.5
2017-08-30T11:10:51.584Z,30.5
2017-08-30T11:11:52.339Z,30.4
2017-08-30T11:12:53.094Z,30.4
2017-08-30T11:13:53.906Z,30.4
2017-08-30T11:14:54.663Z,30.4
2017-08-30T11:15:55.459Z,30.4
2017-08-30T11:16:56.204Z,30.4
2017-08-30T11:17:56.933Z,30.5
2017-08-30T11:18:57.666Z,30.5
2017-08-30T11:19:58.457Z,30.4
2017-08-30T11:20:59.350Z,30.3
2017-08-30T11:22:00.283Z,30.3
2017-08-30T11:23:00.927Z,30.3
2017-08-30T11:24:01.796Z,30.3
2017-08-30T11:25:02.497Z,30.4
2017-08-30T11:26:03.229Z,30.3
2017-08-30T11:27:04.015Z,30.3
2017-08-30T11:28:04.738Z,30.2
2017-08-30T11:29:05.518Z,30.2
2017-08-30T11:30:06.342Z,30.3
2017-08-30T11:31:07.205Z,30.5
2017-08-30T11:32:07.953Z,30.5
2017-08-30T11:33:08.633Z,30.5
2017-08-30T11:34:09.492Z,30.6
2017-08-30T11:35:10.159Z,30.7
2017-08-30T11:36:10.951Z,30.8
2017-08-30T11:37:11.678Z,30.8
2017-08-30T11:38:12.440Z,30.7
2017-08-30T11:39:13.135Z,30.7
2017-08-30T11:40:13.925Z,30.8
2017-08-30T11:41:14.758Z,30.9
2017-08-30T11:42:15.537Z,31.0
2017-08-30T11:43:16.415Z,31.0
2017-08-30T11:44:17.109Z,31.0
2017-08-30T11:45:18.363Z,31.0
2017-08-30T11:46:19.754Z,31.1
2017-08-30T11:47:20.839Z,31.0
2017-08-30T11:48:22.183Z,31.0
2017-08-30T11:49:22.972Z,30.8
2017-08-30T11:50:23.749Z,30.9
2017-08-30T11:51:24.493Z,31.0
2017-08-30T11:52:25.288Z,30.9
2017-08-30T11:53:26.224Z,30.8
2017-08-30T11:54:27.138Z,30.8
2017-08-30T11:55:28.066Z,30.7
2017-08-30T11:56:28.837Z,30.7
2017-08-30T11:57:29.574Z,30.7
2017-08-30T11:58:30.247Z,30.6
2017-08-30T11:59:31.024Z,30.6
2017-08-30T12:00:31.901Z,30.7
2017-08-30T12:01:32.811Z,30.7
2017-08-30T12:02:41.907Z,30.6
2017-08-30T12:03:43.433Z,30.7
2017-08-30T12:04:44.360Z,30.6
2017-08-30T12:05:45.134Z,30.5
2017-08-30T12:06:45.885Z,30.6
2017-08-30T12:07:46.726Z,30.5
2017-08-30T12:08:47.507Z,30.7
2017-08-30T12:09:48.298Z,30.7
2017-08-30T12:10:48.946Z,30.8
2017-08-30T12:11:49.774Z,30.9
2017-08-30T12:12:50.525Z,30.8
2017-08-30T12:13:51.370Z,30.8
2017-08-30T12:14:52.091Z,31.0
2017-08-30T12:15:53.003Z,31.1
2017-08-30T12:16:53.802Z,31.1
2017-08-30T12:17:54.539Z,31.2
2017-08-30T12:18:55.285Z,31.1
2017-08-30T12:19:56.123Z,31.3
2017-08-30T12:20:56.837Z,31.3
2017-08-30T12:21:57.558Z,31.3
2017-08-30T12:22:58.305Z,31.5
2017-08-30T12:23:58.993Z,31.5
2017-08-30T12:24:59.741Z,31.5
2017-08-30T12:26:00.558Z,31.6
2017-08-30T12:27:01.319Z,31.6
2017-08-30T12:28:02.069Z,31.6
2017-08-30T12:29:02.943Z,31.6
2017-08-30T12:30:03.687Z,31.6
2017-08-30T12:31:04.538Z,31.4
2017-08-30T12:32:05.281Z,31.4
2017-08-30T12:33:06.106Z,31.3
2017-08-30T12:34:07.495Z,31.4
2017-08-30T12:35:08.185Z,31.3
2017-08-30T12:36:08.968Z,31.3
2017-08-30T12:37:10.140Z,31.4
2017-08-30T12:38:10.826Z,31.4
2017-08-30T12:39:11.585Z,31.4
2017-08-30T12:40:12.333Z,31.5
2017-08-30T12:41:13.115Z,31.5
2017-08-30T12:42:13.867Z,31.5
2017-08-30T12:43:14.587Z,31.6
2017-08-30T12:44:15.379Z,31.5
2017-08-30T12:45:16.157Z,31.6
2017-08-30T12:46:17.122Z,31.6
2017-08-30T12:47:17.825Z,31.6
2017-08-30T12:48:18.526Z,31.7
2017-08-30T12:49:19.234Z,31.6
2017-08-30T12:50:20.027Z,31.5
2017-08-30T12:51:20.793Z,31.5
2017-08-30T12:52:21.555Z,31.5
2017-08-30T12:53:22.291Z,31.5
2017-08-30T12:54:23.075Z,31.3
2017-08-30T12:55:23.781Z,31.4
2017-08-30T12:56:24.603Z,31.2
2017-08-30T12:57:25.356Z,31.4
2017-08-30T12:58:26.154Z,31.3
2017-08-30T12:59:26.893Z,31.3
2017-08-30T13:00:27.656Z,31.3
2017-08-30T13:01:29.690Z,31.3
2017-08-30T13:02:30.094Z,31.2
2017-08-30T13:03:30.886Z,31.3
2017-08-30T13:04:31.684Z,31.3
2017-08-30T13:05:32.413Z,31.2
2017-08-30T13:06:33.167Z,31.4
2017-08-30T13:07:33.915Z,31.4
2017-08-30T13:08:34.736Z,31.4
2017-08-30T13:09:35.438Z,31.6
2017-08-30T13:10:36.292Z,31.6
2017-08-30T13:11:36.980Z,31.5
2017-08-30T13:12:37.744Z,31.5
2017-08-30T13:13:38.458Z,31.6
2017-08-30T13:14:39.191Z,31.5
2017-08-30T13:15:40.415Z,31.6
2017-08-30T13:16:41.845Z,31.6
2017-08-30T13:17:42.680Z,31.5
2017-08-30T13:18:43.502Z,31.6
2017-08-30T13:19:44.225Z,31.6
2017-08-30T13:20:44.968Z,31.5
2017-08-30T13:21:45.679Z,31.6
2017-08-30T13:22:46.427Z,31.5
2017-08-30T13:23:47.237Z,31.7
2017-08-30T13:24:48.054Z,31.6
2017-08-30T13:25:48.834Z,31.7
2017-08-30T13:26:49.564Z,31.7
2017-08-30T13:27:50.370Z,31.7
2017-08-30T13:28:51.424Z,31.8
2017-08-30T13:29:52.172Z,31.7
2017-08-30T13:30:53.097Z,31.7
2017-08-30T13:31:53.818Z,31.7
2017-08-30T13:32:54.623Z,31.8
2017-08-30T13:33:55.386Z,31.8
2017-08-30T13:34:56.184Z,31.8
2017-08-30T13:35:56.986Z,31.8